sensor_id;sensor_type;location;lat;lon;timestamp;temperature;humidity
12981;DHT22;6555;50.468;8.480;2023-05-01T00:02:51;13.70;46.50
12981;DHT22;6555;50.468;8.480;2023-05-01T00:08:10;13.60;46.60
12981;DHT22;6555;50.468;8.480;2023-05-01T00:13:40;13.60;46.50
12981;DHT22;6555;50.468;8.480;2023-05-01T00:18:57;13.50;46.70
12981;DHT22;6555;50.468;8.480;2023-05-01T00:24:28;13.40;46.40
12981;DHT22;6555;50.468;8.480;2023-05-01T00:29:45;13.30;46.80
12981;DHT22;6555;50.468;8.480;2023-05-01T00:35:16;13.20;46.70
12981;DHT22;6555;50.468;8.480;2023-05-01T00:40:40;13.20;47.10
12981;DHT22;6555;50.468;8.480;2023-05-01T00:46:10;13.20;47.20
12981;DHT22;6555;50.468;8.480;2023-05-01T00:51:28;13.20;47.30
12981;DHT22;6555;50.468;8.480;2023-05-01T00:56:53;13.20;47.00
12981;DHT22;6555;50.468;8.480;2023-05-01T01:02:16;13.20;47.00
12981;DHT22;6555;50.468;8.480;2023-05-01T01:07:39;13.20;47.20
12981;DHT22;6555;50.468;8.480;2023-05-01T01:13:19;13.10;47.10
12981;DHT22;6555;50.468;8.480;2023-05-01T01:18:42;13.10;47.20
12981;DHT22;6555;50.468;8.480;2023-05-01T01:24:25;13.00;47.20
12981;DHT22;6555;50.468;8.480;2023-05-01T01:30:00;12.90;47.60
12981;DHT22;6555;50.468;8.480;2023-05-01T01:35:36;12.90;47.50
12981;DHT22;6555;50.468;8.480;2023-05-01T01:40:56;12.90;47.60
12981;DHT22;6555;50.468;8.480;2023-05-01T01:46:36;12.90;47.40
12981;DHT22;6555;50.468;8.480;2023-05-01T01:51:55;12.80;47.50
12981;DHT22;6555;50.468;8.480;2023-05-01T01:57:28;12.80;47.30
12981;DHT22;6555;50.468;8.480;2023-05-01T02:02:45;12.70;47.50
12981;DHT22;6555;50.468;8.480;2023-05-01T02:08:19;12.70;47.40
12981;DHT22;6555;50.468;8.480;2023-05-01T02:13:40;12.60;47.50
12981;DHT22;6555;50.468;8.480;2023-05-01T02:19:12;12.60;47.30
12981;DHT22;6555;50.468;8.480;2023-05-01T02:24:31;12.50;47.60
12981;DHT22;6555;50.468;8.480;2023-05-01T02:30:01;12.50;47.50
12981;DHT22;6555;50.468;8.480;2023-05-01T02:35:19;12.40;47.60
12981;DHT22;6555;50.468;8.480;2023-05-01T02:40:59;12.40;47.50
12981;DHT22;6555;50.468;8.480;2023-05-01T02:46:33;12.40;47.80
12981;DHT22;6555;50.468;8.480;2023-05-01T02:51:51;12.30;47.90
12981;DHT22;6555;50.468;8.480;2023-05-01T02:57:23;12.30;47.80
12981;DHT22;6555;50.468;8.480;2023-05-01T03:02:39;12.30;48.00
12981;DHT22;6555;50.468;8.480;2023-05-01T03:08:09;12.30;47.80
12981;DHT22;6555;50.468;8.480;2023-05-01T03:13:28;12.30;48.00
12981;DHT22;6555;50.468;8.480;2023-05-01T03:18:58;12.30;48.00
12981;DHT22;6555;50.468;8.480;2023-05-01T03:24:14;12.40;48.20
12981;DHT22;6555;50.468;8.480;2023-05-01T03:29:46;12.40;48.00
12981;DHT22;6555;50.468;8.480;2023-05-01T03:35:06;12.50;48.40
12981;DHT22;6555;50.468;8.480;2023-05-01T03:40:36;12.50;48.10
12981;DHT22;6555;50.468;8.480;2023-05-01T03:46:12;12.50;48.30
12981;DHT22;6555;50.468;8.480;2023-05-01T03:51:42;12.50;48.10
12981;DHT22;6555;50.468;8.480;2023-05-01T03:57:00;12.50;48.40
12981;DHT22;6555;50.468;8.480;2023-05-01T04:02:32;12.50;48.20
12981;DHT22;6555;50.468;8.480;2023-05-01T04:07:56;12.60;48.50
12981;DHT22;6555;50.468;8.480;2023-05-01T04:13:26;12.60;48.30
12981;DHT22;6555;50.468;8.480;2023-05-01T04:18:45;12.60;48.50
12981;DHT22;6555;50.468;8.480;2023-05-01T04:24:21;12.60;48.30
12981;DHT22;6555;50.468;8.480;2023-05-01T04:29:38;12.60;48.50
12981;DHT22;6555;50.468;8.480;2023-05-01T04:35:11;12.60;48.30
12981;DHT22;6555;50.468;8.480;2023-05-01T04:40:41;12.60;48.50
12981;DHT22;6555;50.468;8.480;2023-05-01T04:45:57;12.60;48.60
12981;DHT22;6555;50.468;8.480;2023-05-01T04:51:32;12.60;48.40
12981;DHT22;6555;50.468;8.480;2023-05-01T04:56:50;12.70;48.80
12981;DHT22;6555;50.468;8.480;2023-05-01T05:02:20;12.60;48.40
12981;DHT22;6555;50.468;8.480;2023-05-01T05:07:38;12.60;48.80
12981;DHT22;6555;50.468;8.480;2023-05-01T05:13:15;12.70;49.30
12981;DHT22;6555;50.468;8.480;2023-05-01T05:18:38;12.60;48.70
12981;DHT22;6555;50.468;8.480;2023-05-01T05:24:15;12.60;48.50
12981;DHT22;6555;50.468;8.480;2023-05-01T05:29:33;12.70;48.90
12981;DHT22;6555;50.468;8.480;2023-05-01T05:35:04;12.70;48.70
12981;DHT22;6555;50.468;8.480;2023-05-01T05:40:22;12.70;48.90
12981;DHT22;6555;50.468;8.480;2023-05-01T05:45:57;12.80;48.70
12981;DHT22;6555;50.468;8.480;2023-05-01T05:51:16;12.80;48.90
12981;DHT22;6555;50.468;8.480;2023-05-01T05:56:49;12.90;48.70
12981;DHT22;6555;50.468;8.480;2023-05-01T06:02:07;13.00;48.90
12981;DHT22;6555;50.468;8.480;2023-05-01T06:07:37;13.00;48.80
12981;DHT22;6555;50.468;8.480;2023-05-01T06:12:56;13.10;49.10
12981;DHT22;6555;50.468;8.480;2023-05-01T06:18:29;13.10;49.10
12981;DHT22;6555;50.468;8.480;2023-05-01T06:24:03;13.30;49.20
12981;DHT22;6555;50.468;8.480;2023-05-01T06:29:40;13.40;49.10
12981;DHT22;6555;50.468;8.480;2023-05-01T06:34:58;13.50;49.30
12981;DHT22;6555;50.468;8.480;2023-05-01T06:40:28;13.60;49.10
12981;DHT22;6555;50.468;8.480;2023-05-01T06:45:47;13.60;49.00
12981;DHT22;6555;50.468;8.480;2023-05-01T06:51:17;13.70;48.90
12981;DHT22;6555;50.468;8.480;2023-05-01T06:56:33;13.80;48.90
12981;DHT22;6555;50.468;8.480;2023-05-01T07:02:08;13.90;48.90
12981;DHT22;6555;50.468;8.480;2023-05-01T07:07:28;13.90;49.00
12981;DHT22;6555;50.468;8.480;2023-05-01T07:13:14;14.00;49.00
12981;DHT22;6555;50.468;8.480;2023-05-01T07:18:32;14.10;49.30
12981;DHT22;6555;50.468;8.480;2023-05-01T07:24:03;14.20;49.30
12981;DHT22;6555;50.468;8.480;2023-05-01T07:29:19;14.40;49.50
12981;DHT22;6555;50.468;8.480;2023-05-01T07:34:51;14.60;49.40
12981;DHT22;6555;50.468;8.480;2023-05-01T07:40:09;14.80;49.50
12981;DHT22;6555;50.468;8.480;2023-05-01T07:45:40;15.10;49.40
12981;DHT22;6555;50.468;8.480;2023-05-01T07:51:00;15.30;49.40
12981;DHT22;6555;50.468;8.480;2023-05-01T07:56:30;15.50;49.50
12981;DHT22;6555;50.468;8.480;2023-05-01T08:01:47;15.70;49.70
12981;DHT22;6555;50.468;8.480;2023-05-01T08:07:19;15.90;49.80
12981;DHT22;6555;50.468;8.480;2023-05-01T08:12:35;16.20;49.90
12981;DHT22;6555;50.468;8.480;2023-05-01T08:18:05;16.60;50.20
12981;DHT22;6555;50.468;8.480;2023-05-01T08:23:23;17.00;49.90
12981;DHT22;6555;50.468;8.480;2023-05-01T08:28:53;17.30;50.00
12981;DHT22;6555;50.468;8.480;2023-05-01T08:34:13;17.70;49.70
12981;DHT22;6555;50.468;8.480;2023-05-01T08:39:45;18.00;49.80
12981;DHT22;6555;50.468;8.480;2023-05-01T08:45:02;18.40;49.70
12981;DHT22;6555;50.468;8.480;2023-05-01T08:50:38;18.60;49.70
12981;DHT22;6555;50.468;8.480;2023-05-01T08:55:57;19.00;49.20
12981;DHT22;6555;50.468;8.480;2023-05-01T09:01:28;19.20;49.10
12981;DHT22;6555;50.468;8.480;2023-05-01T09:06:48;19.50;48.80
12981;DHT22;6555;50.468;8.480;2023-05-01T09:12:27;19.60;48.80
12981;DHT22;6555;50.468;8.480;2023-05-01T09:17:45;19.80;48.00
12981;DHT22;6555;50.468;8.480;2023-05-01T09:23:18;19.90;48.40
12981;DHT22;6555;50.468;8.480;2023-05-01T09:28:41;20.10;48.10
12981;DHT22;6555;50.468;8.480;2023-05-01T09:34:14;20.20;47.70
12981;DHT22;6555;50.468;8.480;2023-05-01T09:39:39;20.40;47.80
12981;DHT22;6555;50.468;8.480;2023-05-01T09:45:13;20.60;48.20
12981;DHT22;6555;50.468;8.480;2023-05-01T09:50:34;20.80;47.90
12981;DHT22;6555;50.468;8.480;2023-05-01T09:56:15;21.00;48.20
12981;DHT22;6555;50.468;8.480;2023-05-01T10:01:40;21.20;47.30
12981;DHT22;6555;50.468;8.480;2023-05-01T10:07:11;21.50;47.70
12981;DHT22;6555;50.468;8.480;2023-05-01T10:12:31;21.80;47.80
12981;DHT22;6555;50.468;8.480;2023-05-01T10:18:06;22.00;48.10
12981;DHT22;6555;50.468;8.480;2023-05-01T10:23:26;22.30;46.80
12981;DHT22;6555;50.468;8.480;2023-05-01T10:28:59;22.40;46.90
12981;DHT22;6555;50.468;8.480;2023-05-01T10:34:29;22.40;46.00
12981;DHT22;6555;50.468;8.480;2023-05-01T10:46:27;22.20;45.60
12981;DHT22;6555;50.468;8.480;2023-05-01T10:52:00;22.10;45.30
12981;DHT22;6555;50.468;8.480;2023-05-01T10:57:43;22.00;45.10
12981;DHT22;6555;50.468;8.480;2023-05-01T11:09:37;21.80;45.00
12981;DHT22;6555;50.468;8.480;2023-05-01T11:15:05;21.70;45.20
12981;DHT22;6555;50.468;8.480;2023-05-01T11:20:49;21.60;45.10
12981;DHT22;6555;50.468;8.480;2023-05-01T11:26:10;21.60;44.80
12981;DHT22;6555;50.468;8.480;2023-05-01T11:31:55;21.50;45.40
12981;DHT22;6555;50.468;8.480;2023-05-01T11:37:15;21.50;44.50
12981;DHT22;6555;50.468;8.480;2023-05-01T11:42:56;21.40;45.40
12981;DHT22;6555;50.468;8.480;2023-05-01T11:48:15;21.40;44.80
12981;DHT22;6555;50.468;8.480;2023-05-01T11:53:59;21.40;45.40
12981;DHT22;6555;50.468;8.480;2023-05-01T11:59:19;21.30;44.60
12981;DHT22;6555;50.468;8.480;2023-05-01T12:04:53;21.30;45.00
12981;DHT22;6555;50.468;8.480;2023-05-01T12:10:16;21.30;45.00
12981;DHT22;6555;50.468;8.480;2023-05-01T12:15:53;21.30;45.20
12981;DHT22;6555;50.468;8.480;2023-05-01T12:21:14;21.20;43.70
12981;DHT22;6555;50.468;8.480;2023-05-01T12:26:59;21.10;43.90
12981;DHT22;6555;50.468;8.480;2023-05-01T12:32:28;20.90;44.00
12981;DHT22;6555;50.468;8.480;2023-05-01T12:38:10;20.90;43.80
12981;DHT22;6555;50.468;8.480;2023-05-01T12:43:31;20.80;43.00
12981;DHT22;6555;50.468;8.480;2023-05-01T12:49:05;20.80;44.10
12981;DHT22;6555;50.468;8.480;2023-05-01T12:54:29;20.80;44.30
12981;DHT22;6555;50.468;8.480;2023-05-01T13:00:04;20.90;44.20
12981;DHT22;6555;50.468;8.480;2023-05-01T13:05:31;21.10;43.60
12981;DHT22;6555;50.468;8.480;2023-05-01T13:11:11;21.20;44.20
12981;DHT22;6555;50.468;8.480;2023-05-01T13:16:33;21.40;43.10
12981;DHT22;6555;50.468;8.480;2023-05-01T13:22:28;21.40;44.30
12981;DHT22;6555;50.468;8.480;2023-05-01T13:27:47;21.50;42.30
12981;DHT22;6555;50.468;8.480;2023-05-01T13:33:29;21.70;43.50
12981;DHT22;6555;50.468;8.480;2023-05-01T13:39:06;21.90;43.40
12981;DHT22;6555;50.468;8.480;2023-05-01T13:44:45;22.00;43.40
12981;DHT22;6555;50.468;8.480;2023-05-01T13:50:15;22.20;42.50
12981;DHT22;6555;50.468;8.480;2023-05-01T13:55:50;22.10;43.20
12981;DHT22;6555;50.468;8.480;2023-05-01T14:01:14;22.20;40.60
12981;DHT22;6555;50.468;8.480;2023-05-01T14:06:43;22.00;41.80
12981;DHT22;6555;50.468;8.480;2023-05-01T14:11:53;21.80;42.00
12981;DHT22;6555;50.468;8.480;2023-05-01T14:17:04;21.60;42.10
12981;DHT22;6555;50.468;8.480;2023-05-01T14:22:08;21.40;42.60
12981;DHT22;6555;50.468;8.480;2023-05-01T14:27:21;21.30;42.90
12981;DHT22;6555;50.468;8.480;2023-05-01T14:32:39;21.20;43.00
12981;DHT22;6555;50.468;8.480;2023-05-01T14:37:43;21.10;43.10
12981;DHT22;6555;50.468;8.480;2023-05-01T14:42:58;21.00;43.40
12981;DHT22;6555;50.468;8.480;2023-05-01T14:48:03;20.90;43.00
12981;DHT22;6555;50.468;8.480;2023-05-01T14:53:16;20.80;43.00
12981;DHT22;6555;50.468;8.480;2023-05-01T14:58:35;20.70;43.30
12981;DHT22;6555;50.468;8.480;2023-05-01T15:03:39;20.60;43.50
12981;DHT22;6555;50.468;8.480;2023-05-01T15:08:47;20.50;43.70
12981;DHT22;6555;50.468;8.480;2023-05-01T15:13:52;20.40;43.70
12981;DHT22;6555;50.468;8.480;2023-05-01T15:18:58;20.50;43.80
12981;DHT22;6555;50.468;8.480;2023-05-01T15:24:04;20.50;44.00
12981;DHT22;6555;50.468;8.480;2023-05-01T15:29:33;20.60;44.10
12981;DHT22;6555;50.468;8.480;2023-05-01T15:35:20;20.70;43.50
12981;DHT22;6555;50.468;8.480;2023-05-01T15:57:58;20.80;43.10
12981;DHT22;6555;50.468;8.480;2023-05-01T16:09:31;20.70;43.30
12981;DHT22;6555;50.468;8.480;2023-05-01T16:15:46;20.70;43.40
12981;DHT22;6555;50.468;8.480;2023-05-01T16:21:30;20.70;43.90
12981;DHT22;6555;50.468;8.480;2023-05-01T16:27:16;20.70;43.60
12981;DHT22;6555;50.468;8.480;2023-05-01T16:33:20;20.80;43.70
12981;DHT22;6555;50.468;8.480;2023-05-01T16:38:51;20.80;43.40
12981;DHT22;6555;50.468;8.480;2023-05-01T16:56:18;20.50;43.30
12981;DHT22;6555;50.468;8.480;2023-05-01T17:01:41;20.50;43.50
12981;DHT22;6555;50.468;8.480;2023-05-01T17:19:02;20.20;43.60
12981;DHT22;6555;50.468;8.480;2023-05-01T17:30:24;20.20;43.80
12981;DHT22;6555;50.468;8.480;2023-05-01T17:36:10;20.10;43.80
12981;DHT22;6555;50.468;8.480;2023-05-01T17:41:49;20.00;43.80
12981;DHT22;6555;50.468;8.480;2023-05-01T17:47:49;19.90;43.80
12981;DHT22;6555;50.468;8.480;2023-05-01T17:53:28;19.80;43.50
12981;DHT22;6555;50.468;8.480;2023-05-01T17:59:04;19.80;43.40
12981;DHT22;6555;50.468;8.480;2023-05-01T18:04:19;19.70;43.60
12981;DHT22;6555;50.468;8.480;2023-05-01T18:09:52;19.60;43.40
12981;DHT22;6555;50.468;8.480;2023-05-01T18:15:34;19.40;43.40
12981;DHT22;6555;50.468;8.480;2023-05-01T18:21:09;19.30;43.50
12981;DHT22;6555;50.468;8.480;2023-05-01T18:32:34;19.10;43.80
12981;DHT22;6555;50.468;8.480;2023-05-01T18:38:24;19.00;43.90
12981;DHT22;6555;50.468;8.480;2023-05-01T18:44:06;18.90;43.90
12981;DHT22;6555;50.468;8.480;2023-05-01T18:49:44;18.90;44.00
12981;DHT22;6555;50.468;8.480;2023-05-01T18:55:33;18.90;44.10
12981;DHT22;6555;50.468;8.480;2023-05-01T19:00:59;18.80;44.10
12981;DHT22;6555;50.468;8.480;2023-05-01T19:06:44;18.80;44.00
12981;DHT22;6555;50.468;8.480;2023-05-01T19:12:17;18.70;44.20
12981;DHT22;6555;50.468;8.480;2023-05-01T19:17:41;18.70;44.10
12981;DHT22;6555;50.468;8.480;2023-05-01T19:23:07;18.70;44.20
12981;DHT22;6555;50.468;8.480;2023-05-01T19:28:47;18.70;44.10
12981;DHT22;6555;50.468;8.480;2023-05-01T19:34:06;18.60;44.00
12981;DHT22;6555;50.468;8.480;2023-05-01T19:39:50;18.50;44.00
12981;DHT22;6555;50.468;8.480;2023-05-01T19:45:29;18.50;43.90
12981;DHT22;6555;50.468;8.480;2023-05-01T19:51:33;18.40;43.90
12981;DHT22;6555;50.468;8.480;2023-05-01T19:57:06;18.40;43.90
12981;DHT22;6555;50.468;8.480;2023-05-01T20:02:27;18.30;44.00
12981;DHT22;6555;50.468;8.480;2023-05-01T20:08:11;18.20;44.00
12981;DHT22;6555;50.468;8.480;2023-05-01T20:14:43;18.20;44.20
12981;DHT22;6555;50.468;8.480;2023-05-01T20:30:58;18.00;44.00
12981;DHT22;6555;50.468;8.480;2023-05-01T20:36:14;17.90;44.30
12981;DHT22;6555;50.468;8.480;2023-05-01T20:41:48;17.80;44.30
12981;DHT22;6555;50.468;8.480;2023-05-01T20:47:15;17.70;44.30
12981;DHT22;6555;50.468;8.480;2023-05-01T20:52:35;17.70;44.50
12981;DHT22;6555;50.468;8.480;2023-05-01T20:57:52;17.60;44.50
12981;DHT22;6555;50.468;8.480;2023-05-01T21:03:03;17.50;44.60
12981;DHT22;6555;50.468;8.480;2023-05-01T21:08:50;17.40;44.60
12981;DHT22;6555;50.468;8.480;2023-05-01T21:14:11;17.30;45.00
12981;DHT22;6555;50.468;8.480;2023-05-01T21:19:57;17.40;44.90
12981;DHT22;6555;50.468;8.480;2023-05-01T21:25:46;17.30;45.20
12981;DHT22;6555;50.468;8.480;2023-05-01T21:31:43;17.30;45.40
12981;DHT22;6555;50.468;8.480;2023-05-01T21:37:23;17.20;45.10
12981;DHT22;6555;50.468;8.480;2023-05-01T21:43:32;17.20;44.90
12981;DHT22;6555;50.468;8.480;2023-05-01T21:49:05;17.10;45.10
12981;DHT22;6555;50.468;8.480;2023-05-01T21:54:37;17.00;45.40
12981;DHT22;6555;50.468;8.480;2023-05-01T21:59:46;16.80;45.50
12981;DHT22;6555;50.468;8.480;2023-05-01T22:05:11;16.80;45.30
12981;DHT22;6555;50.468;8.480;2023-05-01T22:11:05;16.70;45.60
12981;DHT22;6555;50.468;8.480;2023-05-01T22:16:29;16.70;45.90
12981;DHT22;6555;50.468;8.480;2023-05-01T22:22:07;16.60;45.40
12981;DHT22;6555;50.468;8.480;2023-05-01T22:27:39;16.50;45.80
12981;DHT22;6555;50.468;8.480;2023-05-01T22:33:33;16.40;45.60
12981;DHT22;6555;50.468;8.480;2023-05-01T22:45:00;16.30;45.90
12981;DHT22;6555;50.468;8.480;2023-05-01T22:50:33;16.20;46.10
12981;DHT22;6555;50.468;8.480;2023-05-01T23:01:58;16.10;46.00
12981;DHT22;6555;50.468;8.480;2023-05-01T23:07:47;15.90;46.20
12981;DHT22;6555;50.468;8.480;2023-05-01T23:13:19;15.90;46.40
12981;DHT22;6555;50.468;8.480;2023-05-01T23:19:07;15.80;45.90
12981;DHT22;6555;50.468;8.480;2023-05-01T23:24:39;15.70;46.40
12981;DHT22;6555;50.468;8.480;2023-05-01T23:30:22;15.60;46.10
12981;DHT22;6555;50.468;8.480;2023-05-01T23:35:42;15.50;46.50
12981;DHT22;6555;50.468;8.480;2023-05-01T23:41:22;15.40;46.00
12981;DHT22;6555;50.468;8.480;2023-05-01T23:46:54;15.40;46.50
12981;DHT22;6555;50.468;8.480;2023-05-01T23:52:35;15.20;46.30
12981;DHT22;6555;50.468;8.480;2023-05-01T23:58:10;15.10;46.80
